sensor_id;sensor_type;location;lat;lon;timestamp;P1;durP1;ratioP1;P2;durP2;ratioP2
36797;SDS011;22748;8.426;99.512;2023-02-18T00:01:08;22.80;;;14.77;;
36797;SDS011;22748;8.426;99.512;2023-02-18T00:03:43;20.55;;;14.98;;
36797;SDS011;22748;8.426;99.512;2023-02-18T00:06:15;24.85;;;16.13;;
36797;SDS011;22748;8.426;99.512;2023-02-18T00:08:47;25.77;;;18.00;;
36797;SDS011;22748;8.426;99.512;2023-02-18T00:11:20;25.75;;;18.50;;
36797;SDS011;22748;8.426;99.512;2023-02-18T00:13:53;23.42;;;18.08;;
36797;SDS011;22748;8.426;99.512;2023-02-18T00:16:25;26.25;;;17.17;;
36797;SDS011;22748;8.426;99.512;2023-02-18T00:19:01;23.23;;;17.88;;
36797;SDS011;22748;8.426;99.512;2023-02-18T00:21:34;26.17;;;17.75;;
36797;SDS011;22748;8.426;99.512;2023-02-18T00:24:04;40.93;;;18.77;;
36797;SDS011;22748;8.426;99.512;2023-02-18T00:26:36;32.08;;;18.15;;
36797;SDS011;22748;8.426;99.512;2023-02-18T00:29:07;44.25;;;18.95;;
36797;SDS011;22748;8.426;99.512;2023-02-18T00:31:39;58.20;;;20.48;;
36797;SDS011;22748;8.426;99.512;2023-02-18T00:34:14;31.70;;;19.77;;
36797;SDS011;22748;8.426;99.512;2023-02-18T00:36:44;41.00;;;23.95;;
36797;SDS011;22748;8.426;99.512;2023-02-18T00:39:14;41.40;;;28.05;;
36797;SDS011;22748;8.426;99.512;2023-02-18T00:41:45;37.70;;;25.35;;
36797;SDS011;22748;8.426;99.512;2023-02-18T00:44:16;35.92;;;21.73;;
36797;SDS011;22748;8.426;99.512;2023-02-18T00:46:47;29.98;;;18.60;;
36797;SDS011;22748;8.426;99.512;2023-02-18T00:49:21;25.02;;;16.13;;
36797;SDS011;22748;8.426;99.512;2023-02-18T00:51:52;22.08;;;15.57;;
36797;SDS011;22748;8.426;99.512;2023-02-18T00:54:23;18.52;;;14.43;;
36797;SDS011;22748;8.426;99.512;2023-02-18T00:56:54;22.85;;;14.63;;
36797;SDS011;22748;8.426;99.512;2023-02-18T00:59:25;18.48;;;14.10;;
36797;SDS011;22748;8.426;99.512;2023-02-18T01:01:57;20.77;;;14.07;;
36797;SDS011;22748;8.426;99.512;2023-02-18T01:04:30;23.48;;;14.43;;
36797;SDS011;22748;8.426;99.512;2023-02-18T01:07:00;22.73;;;14.70;;
36797;SDS011;22748;8.426;99.512;2023-02-18T01:09:31;22.25;;;14.05;;
36797;SDS011;22748;8.426;99.512;2023-02-18T01:12:01;19.33;;;12.93;;
36797;SDS011;22748;8.426;99.512;2023-02-18T01:14:31;37.55;;;19.30;;
36797;SDS011;22748;8.426;99.512;2023-02-18T01:17:01;26.27;;;15.38;;
36797;SDS011;22748;8.426;99.512;2023-02-18T01:19:40;25.77;;;19.83;;
36797;SDS011;22748;8.426;99.512;2023-02-18T01:22:11;24.45;;;16.35;;
36797;SDS011;22748;8.426;99.512;2023-02-18T01:24:41;22.80;;;15.60;;
36797;SDS011;22748;8.426;99.512;2023-02-18T01:27:12;27.00;;;16.27;;
36797;SDS011;22748;8.426;99.512;2023-02-18T01:29:43;22.65;;;15.00;;
36797;SDS011;22748;8.426;99.512;2023-02-18T01:32:14;23.00;;;15.13;;
36797;SDS011;22748;8.426;99.512;2023-02-18T01:34:46;19.35;;;14.50;;
36797;SDS011;22748;8.426;99.512;2023-02-18T01:37:17;23.45;;;14.55;;
36797;SDS011;22748;8.426;99.512;2023-02-18T01:39:47;23.00;;;14.75;;
36797;SDS011;22748;8.426;99.512;2023-02-18T01:42:20;21.20;;;14.73;;
36797;SDS011;22748;8.426;99.512;2023-02-18T01:44:52;24.05;;;15.18;;
36797;SDS011;22748;8.426;99.512;2023-02-18T01:47:49;25.65;;;15.30;;
36797;SDS011;22748;8.426;99.512;2023-02-18T01:50:21;22.60;;;14.65;;
36797;SDS011;22748;8.426;99.512;2023-02-18T01:52:52;24.98;;;15.68;;
36797;SDS011;22748;8.426;99.512;2023-02-18T01:55:25;23.80;;;15.50;;
36797;SDS011;22748;8.426;99.512;2023-02-18T01:57:56;24.88;;;14.18;;
36797;SDS011;22748;8.426;99.512;2023-02-18T02:00:28;25.90;;;13.95;;
36797;SDS011;22748;8.426;99.512;2023-02-18T02:02:59;24.00;;;14.02;;
36797;SDS011;22748;8.426;99.512;2023-02-18T02:05:35;28.38;;;14.57;;
36797;SDS011;22748;8.426;99.512;2023-02-18T02:08:06;22.80;;;14.02;;
36797;SDS011;22748;8.426;99.512;2023-02-18T02:10:45;32.67;;;14.13;;
36797;SDS011;22748;8.426;99.512;2023-02-18T02:13:33;27.60;;;13.88;;
36797;SDS011;22748;8.426;99.512;2023-02-18T02:16:20;19.08;;;13.25;;
36797;SDS011;22748;8.426;99.512;2023-02-18T02:19:04;24.50;;;12.90;;
36797;SDS011;22748;8.426;99.512;2023-02-18T02:25:02;21.55;;;12.80;;
36797;SDS011;22748;8.426;99.512;2023-02-18T02:28:02;22.08;;;12.35;;
36797;SDS011;22748;8.426;99.512;2023-02-18T02:30:57;18.25;;;11.50;;
36797;SDS011;22748;8.426;99.512;2023-02-18T02:33:55;22.25;;;11.63;;
36797;SDS011;22748;8.426;99.512;2023-02-18T02:36:54;20.05;;;10.82;;
36797;SDS011;22748;8.426;99.512;2023-02-18T02:39:30;20.38;;;10.57;;
36797;SDS011;22748;8.426;99.512;2023-02-18T02:42:08;19.55;;;10.43;;
36797;SDS011;22748;8.426;99.512;2023-02-18T02:44:51;20.55;;;10.98;;
36797;SDS011;22748;8.426;99.512;2023-02-18T02:47:25;20.90;;;10.93;;
36797;SDS011;22748;8.426;99.512;2023-02-18T02:50:03;20.40;;;10.70;;
36797;SDS011;22748;8.426;99.512;2023-02-18T02:52:44;20.33;;;10.60;;
36797;SDS011;22748;8.426;99.512;2023-02-18T02:55:20;17.27;;;10.38;;
36797;SDS011;22748;8.426;99.512;2023-02-18T02:57:52;26.35;;;12.20;;
36797;SDS011;22748;8.426;99.512;2023-02-18T03:00:25;18.35;;;9.30;;
36797;SDS011;22748;8.426;99.512;2023-02-18T03:03:16;16.17;;;9.77;;
36797;SDS011;22748;8.426;99.512;2023-02-18T03:06:20;20.90;;;10.32;;
36797;SDS011;22748;8.426;99.512;2023-02-18T03:09:06;18.95;;;9.95;;
36797;SDS011;22748;8.426;99.512;2023-02-18T03:11:46;16.70;;;9.65;;
36797;SDS011;22748;8.426;99.512;2023-02-18T03:14:33;18.17;;;9.82;;
36797;SDS011;22748;8.426;99.512;2023-02-18T03:17:14;17.00;;;9.65;;
36797;SDS011;22748;8.426;99.512;2023-02-18T03:19:54;17.27;;;9.02;;
36797;SDS011;22748;8.426;99.512;2023-02-18T03:22:31;15.73;;;8.40;;
36797;SDS011;22748;8.426;99.512;2023-02-18T03:25:09;17.90;;;8.50;;
36797;SDS011;22748;8.426;99.512;2023-02-18T03:27:41;17.70;;;9.15;;
36797;SDS011;22748;8.426;99.512;2023-02-18T03:30:19;18.20;;;8.52;;
36797;SDS011;22748;8.426;99.512;2023-02-18T03:32:52;13.45;;;7.85;;
36797;SDS011;22748;8.426;99.512;2023-02-18T03:35:29;14.88;;;8.80;;
36797;SDS011;22748;8.426;99.512;2023-02-18T03:38:02;20.25;;;9.40;;
36797;SDS011;22748;8.426;99.512;2023-02-18T03:40:43;17.33;;;8.50;;
36797;SDS011;22748;8.426;99.512;2023-02-18T03:43:14;17.23;;;8.50;;
36797;SDS011;22748;8.426;99.512;2023-02-18T03:45:45;18.63;;;9.50;;
36797;SDS011;22748;8.426;99.512;2023-02-18T03:48:16;21.02;;;9.13;;
36797;SDS011;22748;8.426;99.512;2023-02-18T03:50:46;16.67;;;8.63;;
36797;SDS011;22748;8.426;99.512;2023-02-18T03:53:17;16.67;;;8.55;;
36797;SDS011;22748;8.426;99.512;2023-02-18T03:55:50;13.70;;;8.27;;
36797;SDS011;22748;8.426;99.512;2023-02-18T03:58:19;18.55;;;9.68;;
36797;SDS011;22748;8.426;99.512;2023-02-18T04:00:50;17.02;;;8.55;;
36797;SDS011;22748;8.426;99.512;2023-02-18T04:03:20;16.08;;;8.95;;
36797;SDS011;22748;8.426;99.512;2023-02-18T04:05:51;13.73;;;8.45;;
36797;SDS011;22748;8.426;99.512;2023-02-18T04:08:22;18.38;;;8.95;;
36797;SDS011;22748;8.426;99.512;2023-02-18T04:13:24;14.55;;;7.93;;
36797;SDS011;22748;8.426;99.512;2023-02-18T04:15:55;16.15;;;9.00;;
36797;SDS011;22748;8.426;99.512;2023-02-18T04:18:26;15.07;;;9.27;;
36797;SDS011;22748;8.426;99.512;2023-02-18T04:23:39;16.08;;;7.97;;
36797;SDS011;22748;8.426;99.512;2023-02-18T04:26:20;15.68;;;8.88;;
36797;SDS011;22748;8.426;99.512;2023-02-18T04:28:55;14.57;;;8.05;;
36797;SDS011;22748;8.426;99.512;2023-02-18T04:31:26;14.63;;;8.38;;
36797;SDS011;22748;8.426;99.512;2023-02-18T04:33:57;11.55;;;7.35;;
36797;SDS011;22748;8.426;99.512;2023-02-18T04:36:32;11.55;;;7.30;;
36797;SDS011;22748;8.426;99.512;2023-02-18T04:39:04;12.63;;;7.45;;
36797;SDS011;22748;8.426;99.512;2023-02-18T04:41:36;16.60;;;7.93;;
36797;SDS011;22748;8.426;99.512;2023-02-18T04:44:07;13.27;;;7.57;;
36797;SDS011;22748;8.426;99.512;2023-02-18T04:46:38;18.15;;;8.35;;
36797;SDS011;22748;8.426;99.512;2023-02-18T04:49:10;16.00;;;7.95;;
36797;SDS011;22748;8.426;99.512;2023-02-18T04:51:43;14.05;;;7.65;;
36797;SDS011;22748;8.426;99.512;2023-02-18T04:54:13;14.68;;;7.22;;
36797;SDS011;22748;8.426;99.512;2023-02-18T04:56:49;12.55;;;6.95;;
36797;SDS011;22748;8.426;99.512;2023-02-18T04:59:21;14.02;;;7.07;;
36797;SDS011;22748;8.426;99.512;2023-02-18T05:04:22;13.55;;;7.43;;
36797;SDS011;22748;8.426;99.512;2023-02-18T05:06:52;16.23;;;7.25;;
36797;SDS011;22748;8.426;99.512;2023-02-18T05:09:23;17.67;;;7.40;;
36797;SDS011;22748;8.426;99.512;2023-02-18T05:11:56;14.88;;;7.55;;
36797;SDS011;22748;8.426;99.512;2023-02-18T05:14:27;12.55;;;6.60;;
36797;SDS011;22748;8.426;99.512;2023-02-18T05:16:57;12.63;;;6.43;;
36797;SDS011;22748;8.426;99.512;2023-02-18T05:19:29;10.32;;;6.40;;
36797;SDS011;22748;8.426;99.512;2023-02-18T05:22:07;11.07;;;6.50;;
36797;SDS011;22748;8.426;99.512;2023-02-18T05:24:43;11.80;;;6.72;;
36797;SDS011;22748;8.426;99.512;2023-02-18T05:27:29;15.75;;;6.45;;
36797;SDS011;22748;8.426;99.512;2023-02-18T05:30:08;11.00;;;5.85;;
36797;SDS011;22748;8.426;99.512;2023-02-18T05:32:46;12.57;;;6.18;;
36797;SDS011;22748;8.426;99.512;2023-02-18T05:35:16;10.20;;;6.25;;
36797;SDS011;22748;8.426;99.512;2023-02-18T05:37:47;10.98;;;6.28;;
36797;SDS011;22748;8.426;99.512;2023-02-18T05:40:18;13.70;;;7.15;;
36797;SDS011;22748;8.426;99.512;2023-02-18T05:42:55;11.95;;;6.93;;
36797;SDS011;22748;8.426;99.512;2023-02-18T05:45:26;13.25;;;7.55;;
36797;SDS011;22748;8.426;99.512;2023-02-18T05:47:55;13.70;;;7.60;;
36797;SDS011;22748;8.426;99.512;2023-02-18T05:50:25;14.07;;;7.18;;
36797;SDS011;22748;8.426;99.512;2023-02-18T05:52:55;13.20;;;6.07;;
36797;SDS011;22748;8.426;99.512;2023-02-18T05:55:25;13.93;;;6.78;;
36797;SDS011;22748;8.426;99.512;2023-02-18T05:57:59;14.57;;;6.28;;
36797;SDS011;22748;8.426;99.512;2023-02-18T06:00:30;9.40;;;5.50;;
36797;SDS011;22748;8.426;99.512;2023-02-18T06:03:00;9.93;;;6.57;;
36797;SDS011;22748;8.426;99.512;2023-02-18T06:05:32;11.27;;;6.40;;
36797;SDS011;22748;8.426;99.512;2023-02-18T06:08:02;12.30;;;6.55;;
36797;SDS011;22748;8.426;99.512;2023-02-18T06:10:31;12.68;;;6.38;;
36797;SDS011;22748;8.426;99.512;2023-02-18T06:13:03;13.32;;;6.68;;
36797;SDS011;22748;8.426;99.512;2023-02-18T06:18:02;10.88;;;6.18;;
36797;SDS011;22748;8.426;99.512;2023-02-18T06:20:34;12.73;;;6.53;;
36797;SDS011;22748;8.426;99.512;2023-02-18T06:23:04;11.10;;;6.55;;
36797;SDS011;22748;8.426;99.512;2023-02-18T06:25:35;11.48;;;6.32;;
36797;SDS011;22748;8.426;99.512;2023-02-18T06:30:36;13.02;;;6.45;;
36797;SDS011;22748;8.426;99.512;2023-02-18T06:33:10;14.43;;;7.07;;
36797;SDS011;22748;8.426;99.512;2023-02-18T06:35:41;14.18;;;6.70;;
36797;SDS011;22748;8.426;99.512;2023-02-18T06:38:20;14.23;;;6.93;;
36797;SDS011;22748;8.426;99.512;2023-02-18T06:40:50;9.13;;;6.43;;
36797;SDS011;22748;8.426;99.512;2023-02-18T06:43:24;9.70;;;6.28;;
36797;SDS011;22748;8.426;99.512;2023-02-18T06:45:55;9.88;;;5.70;;
36797;SDS011;22748;8.426;99.512;2023-02-18T06:48:25;7.80;;;5.05;;
36797;SDS011;22748;8.426;99.512;2023-02-18T06:50:56;10.13;;;5.45;;
36797;SDS011;22748;8.426;99.512;2023-02-18T06:53:27;8.93;;;5.18;;
36797;SDS011;22748;8.426;99.512;2023-02-18T06:55:58;9.38;;;5.18;;
36797;SDS011;22748;8.426;99.512;2023-02-18T06:58:30;11.55;;;6.50;;
36797;SDS011;22748;8.426;99.512;2023-02-18T07:01:00;12.02;;;5.45;;
36797;SDS011;22748;8.426;99.512;2023-02-18T07:03:30;11.48;;;5.28;;
36797;SDS011;22748;8.426;99.512;2023-02-18T07:06:00;13.10;;;8.93;;
36797;SDS011;22748;8.426;99.512;2023-02-18T07:08:30;9.48;;;6.22;;
36797;SDS011;22748;8.426;99.512;2023-02-18T07:11:02;10.98;;;7.10;;
36797;SDS011;22748;8.426;99.512;2023-02-18T07:13:36;10.40;;;5.55;;
36797;SDS011;22748;8.426;99.512;2023-02-18T07:16:06;10.15;;;5.22;;
36797;SDS011;22748;8.426;99.512;2023-02-18T07:18:36;10.63;;;4.10;;
36797;SDS011;22748;8.426;99.512;2023-02-18T07:21:07;7.60;;;3.70;;
36797;SDS011;22748;8.426;99.512;2023-02-18T07:23:37;6.78;;;4.25;;
36797;SDS011;22748;8.426;99.512;2023-02-18T07:26:07;7.30;;;3.58;;
36797;SDS011;22748;8.426;99.512;2023-02-18T07:28:39;5.88;;;3.50;;
36797;SDS011;22748;8.426;99.512;2023-02-18T07:31:09;9.05;;;3.60;;
36797;SDS011;22748;8.426;99.512;2023-02-18T07:33:40;7.40;;;3.10;;
36797;SDS011;22748;8.426;99.512;2023-02-18T07:36:10;6.30;;;3.73;;
36797;SDS011;22748;8.426;99.512;2023-02-18T07:38:40;6.13;;;3.33;;
36797;SDS011;22748;8.426;99.512;2023-02-18T07:41:13;6.53;;;3.00;;
36797;SDS011;22748;8.426;99.512;2023-02-18T07:43:50;6.90;;;3.45;;
36797;SDS011;22748;8.426;99.512;2023-02-18T07:59:16;8.52;;;4.82;;
36797;SDS011;22748;8.426;99.512;2023-02-18T08:01:45;10.40;;;4.65;;
36797;SDS011;22748;8.426;99.512;2023-02-18T08:04:15;7.47;;;4.15;;
36797;SDS011;22748;8.426;99.512;2023-02-18T08:06:46;10.35;;;4.32;;
36797;SDS011;22748;8.426;99.512;2023-02-18T08:09:18;12.38;;;6.32;;
36797;SDS011;22748;8.426;99.512;2023-02-18T08:11:50;9.75;;;5.10;;
36797;SDS011;22748;8.426;99.512;2023-02-18T08:14:23;11.50;;;4.70;;
36797;SDS011;22748;8.426;99.512;2023-02-18T08:16:53;14.18;;;6.15;;
36797;SDS011;22748;8.426;99.512;2023-02-18T08:19:23;12.68;;;5.22;;
36797;SDS011;22748;8.426;99.512;2023-02-18T08:21:54;13.73;;;5.03;;
36797;SDS011;22748;8.426;99.512;2023-02-18T08:24:24;14.73;;;5.30;;
36797;SDS011;22748;8.426;99.512;2023-02-18T08:26:54;10.15;;;4.93;;
36797;SDS011;22748;8.426;99.512;2023-02-18T08:29:24;12.38;;;5.20;;
36797;SDS011;22748;8.426;99.512;2023-02-18T08:31:54;11.75;;;6.20;;
36797;SDS011;22748;8.426;99.512;2023-02-18T08:34:24;9.30;;;5.07;;
36797;SDS011;22748;8.426;99.512;2023-02-18T08:36:54;17.47;;;5.30;;
36797;SDS011;22748;8.426;99.512;2023-02-18T08:39:25;12.40;;;5.20;;
36797;SDS011;22748;8.426;99.512;2023-02-18T08:41:56;10.23;;;5.60;;
36797;SDS011;22748;8.426;99.512;2023-02-18T08:44:31;8.75;;;5.10;;
36797;SDS011;22748;8.426;99.512;2023-02-18T08:47:02;10.07;;;4.75;;
36797;SDS011;22748;8.426;99.512;2023-02-18T08:49:32;6.85;;;4.57;;
36797;SDS011;22748;8.426;99.512;2023-02-18T08:52:03;25.10;;;17.88;;
36797;SDS011;22748;8.426;99.512;2023-02-18T08:54:33;19.23;;;12.20;;
36797;SDS011;22748;8.426;99.512;2023-02-18T08:57:04;13.90;;;8.15;;
36797;SDS011;22748;8.426;99.512;2023-02-18T08:59:35;26.13;;;6.28;;
36797;SDS011;22748;8.426;99.512;2023-02-18T09:04:34;17.05;;;7.30;;
36797;SDS011;22748;8.426;99.512;2023-02-18T09:07:04;12.05;;;5.57;;
36797;SDS011;22748;8.426;99.512;2023-02-18T09:09:35;11.57;;;6.63;;
36797;SDS011;22748;8.426;99.512;2023-02-18T09:12:06;11.05;;;7.60;;
36797;SDS011;22748;8.426;99.512;2023-02-18T09:14:38;15.23;;;8.32;;
36797;SDS011;22748;8.426;99.512;2023-02-18T09:17:09;14.32;;;9.38;;
36797;SDS011;22748;8.426;99.512;2023-02-18T09:19:39;13.57;;;8.27;;
36797;SDS011;22748;8.426;99.512;2023-02-18T09:22:10;12.70;;;8.27;;
36797;SDS011;22748;8.426;99.512;2023-02-18T09:27:11;11.95;;;7.53;;
36797;SDS011;22748;8.426;99.512;2023-02-18T09:29:44;8.52;;;5.90;;
36797;SDS011;22748;8.426;99.512;2023-02-18T09:32:16;13.48;;;7.45;;
36797;SDS011;22748;8.426;99.512;2023-02-18T09:34:47;10.90;;;6.38;;
36797;SDS011;22748;8.426;99.512;2023-02-18T09:37:18;9.40;;;5.88;;
36797;SDS011;22748;8.426;99.512;2023-02-18T09:39:49;11.07;;;7.03;;
36797;SDS011;22748;8.426;99.512;2023-02-18T09:42:20;8.55;;;5.60;;
36797;SDS011;22748;8.426;99.512;2023-02-18T09:44:59;14.48;;;7.57;;
36797;SDS011;22748;8.426;99.512;2023-02-18T09:47:34;13.60;;;8.00;;
36797;SDS011;22748;8.426;99.512;2023-02-18T09:50:07;11.93;;;6.93;;
36797;SDS011;22748;8.426;99.512;2023-02-18T09:52:42;11.77;;;5.82;;
36797;SDS011;22748;8.426;99.512;2023-02-18T09:55:16;11.07;;;6.95;;
36797;SDS011;22748;8.426;99.512;2023-02-18T09:57:48;10.18;;;7.13;;
36797;SDS011;22748;8.426;99.512;2023-02-18T10:00:22;13.52;;;8.38;;
36797;SDS011;22748;8.426;99.512;2023-02-18T10:02:56;13.82;;;7.95;;
36797;SDS011;22748;8.426;99.512;2023-02-18T10:05:28;13.32;;;7.45;;
36797;SDS011;22748;8.426;99.512;2023-02-18T10:08:01;12.40;;;7.78;;
36797;SDS011;22748;8.426;99.512;2023-02-18T10:10:35;13.43;;;7.90;;
36797;SDS011;22748;8.426;99.512;2023-02-18T10:13:12;13.35;;;7.30;;
36797;SDS011;22748;8.426;99.512;2023-02-18T10:15:46;15.60;;;7.38;;
36797;SDS011;22748;8.426;99.512;2023-02-18T10:18:21;13.27;;;8.38;;
36797;SDS011;22748;8.426;99.512;2023-02-18T10:20:56;12.50;;;8.10;;
36797;SDS011;22748;8.426;99.512;2023-02-18T10:23:32;12.63;;;8.55;;
36797;SDS011;22748;8.426;99.512;2023-02-18T10:26:06;17.27;;;8.95;;
36797;SDS011;22748;8.426;99.512;2023-02-18T10:28:43;15.80;;;8.57;;
36797;SDS011;22748;8.426;99.512;2023-02-18T10:31:16;14.65;;;7.85;;
36797;SDS011;22748;8.426;99.512;2023-02-18T10:33:55;18.35;;;9.32;;
36797;SDS011;22748;8.426;99.512;2023-02-18T10:36:32;13.23;;;7.90;;
36797;SDS011;22748;8.426;99.512;2023-02-18T10:42:13;20.02;;;10.52;;
36797;SDS011;22748;8.426;99.512;2023-02-18T10:44:53;30.48;;;16.00;;
36797;SDS011;22748;8.426;99.512;2023-02-18T10:47:36;19.55;;;12.23;;
36797;SDS011;22748;8.426;99.512;2023-02-18T10:50:10;28.70;;;16.70;;
36797;SDS011;22748;8.426;99.512;2023-02-18T10:52:46;21.35;;;14.38;;
36797;SDS011;22748;8.426;99.512;2023-02-18T10:55:19;24.88;;;15.45;;
36797;SDS011;22748;8.426;99.512;2023-02-18T10:58:09;26.80;;;17.15;;
36797;SDS011;22748;8.426;99.512;2023-02-18T11:00:53;30.92;;;18.52;;
36797;SDS011;22748;8.426;99.512;2023-02-18T11:03:25;24.13;;;14.98;;
36797;SDS011;22748;8.426;99.512;2023-02-18T11:06:13;31.92;;;15.40;;
36797;SDS011;22748;8.426;99.512;2023-02-18T11:08:49;19.75;;;12.50;;
36797;SDS011;22748;8.426;99.512;2023-02-18T11:11:23;15.90;;;9.30;;
36797;SDS011;22748;8.426;99.512;2023-02-18T11:13:57;13.85;;;8.82;;
36797;SDS011;22748;8.426;99.512;2023-02-18T11:16:35;17.00;;;12.30;;
36797;SDS011;22748;8.426;99.512;2023-02-18T11:19:20;16.23;;;10.32;;
36797;SDS011;22748;8.426;99.512;2023-02-18T11:22:05;13.65;;;9.30;;
36797;SDS011;22748;8.426;99.512;2023-02-18T11:24:43;13.52;;;9.10;;
36797;SDS011;22748;8.426;99.512;2023-02-18T11:27:20;12.10;;;8.40;;
36797;SDS011;22748;8.426;99.512;2023-02-18T11:29:53;14.20;;;9.20;;
36797;SDS011;22748;8.426;99.512;2023-02-18T11:32:28;13.77;;;9.68;;
36797;SDS011;22748;8.426;99.512;2023-02-18T11:35:00;11.15;;;8.93;;
36797;SDS011;22748;8.426;99.512;2023-02-18T11:37:31;17.33;;;10.40;;
36797;SDS011;22748;8.426;99.512;2023-02-18T11:40:02;16.92;;;10.52;;
36797;SDS011;22748;8.426;99.512;2023-02-18T11:42:33;19.73;;;10.85;;
36797;SDS011;22748;8.426;99.512;2023-02-18T11:45:04;17.70;;;10.02;;
36797;SDS011;22748;8.426;99.512;2023-02-18T11:47:58;18.13;;;10.25;;
36797;SDS011;22748;8.426;99.512;2023-02-18T11:50:31;19.40;;;9.35;;
36797;SDS011;22748;8.426;99.512;2023-02-18T11:53:16;16.02;;;9.45;;
36797;SDS011;22748;8.426;99.512;2023-02-18T11:55:57;13.38;;;9.25;;
36797;SDS011;22748;8.426;99.512;2023-02-18T11:58:30;20.88;;;12.57;;
36797;SDS011;22748;8.426;99.512;2023-02-18T12:01:09;23.67;;;13.23;;
36797;SDS011;22748;8.426;99.512;2023-02-18T12:03:43;23.33;;;13.75;;
36797;SDS011;22748;8.426;99.512;2023-02-18T12:06:22;25.70;;;13.98;;
36797;SDS011;22748;8.426;99.512;2023-02-18T12:08:56;26.65;;;14.23;;
36797;SDS011;22748;8.426;99.512;2023-02-18T12:11:33;22.55;;;13.38;;
36797;SDS011;22748;8.426;99.512;2023-02-18T12:14:10;20.67;;;12.68;;
36797;SDS011;22748;8.426;99.512;2023-02-18T12:16:45;22.65;;;14.27;;
36797;SDS011;22748;8.426;99.512;2023-02-18T12:19:36;21.40;;;14.82;;
36797;SDS011;22748;8.426;99.512;2023-02-18T12:22:30;24.67;;;15.60;;
36797;SDS011;22748;8.426;99.512;2023-02-18T12:25:24;23.58;;;14.80;;
36797;SDS011;22748;8.426;99.512;2023-02-18T12:28:10;22.75;;;13.13;;
36797;SDS011;22748;8.426;99.512;2023-02-18T12:31:03;20.80;;;11.85;;
36797;SDS011;22748;8.426;99.512;2023-02-18T12:33:49;20.00;;;11.05;;
36797;SDS011;22748;8.426;99.512;2023-02-18T12:36:50;17.33;;;10.50;;
36797;SDS011;22748;8.426;99.512;2023-02-18T12:39:48;18.05;;;11.30;;
36797;SDS011;22748;8.426;99.512;2023-02-18T12:42:41;17.52;;;11.38;;
36797;SDS011;22748;8.426;99.512;2023-02-18T12:45:32;19.35;;;12.60;;
36797;SDS011;22748;8.426;99.512;2023-02-18T12:48:28;21.75;;;13.43;;
36797;SDS011;22748;8.426;99.512;2023-02-18T12:51:25;22.73;;;15.18;;
36797;SDS011;22748;8.426;99.512;2023-02-18T12:54:12;29.17;;;18.60;;
36797;SDS011;22748;8.426;99.512;2023-02-18T12:57:00;35.45;;;22.02;;
36797;SDS011;22748;8.426;99.512;2023-02-18T12:59:47;44.03;;;26.23;;
36797;SDS011;22748;8.426;99.512;2023-02-18T13:02:45;43.97;;;27.50;;
36797;SDS011;22748;8.426;99.512;2023-02-18T13:05:30;41.47;;;27.80;;
36797;SDS011;22748;8.426;99.512;2023-02-18T13:08:17;44.75;;;29.08;;
36797;SDS011;22748;8.426;99.512;2023-02-18T13:13:49;45.95;;;28.20;;
36797;SDS011;22748;8.426;99.512;2023-02-18T13:16:26;38.88;;;24.58;;
36797;SDS011;22748;8.426;99.512;2023-02-18T13:19:06;31.25;;;20.80;;
36797;SDS011;22748;8.426;99.512;2023-02-18T13:21:47;31.90;;;20.90;;
36797;SDS011;22748;8.426;99.512;2023-02-18T13:24:26;28.10;;;19.05;;
36797;SDS011;22748;8.426;99.512;2023-02-18T13:27:04;27.40;;;18.50;;
36797;SDS011;22748;8.426;99.512;2023-02-18T13:29:50;26.83;;;17.92;;
36797;SDS011;22748;8.426;99.512;2023-02-18T13:32:32;24.00;;;16.95;;
36797;SDS011;22748;8.426;99.512;2023-02-18T13:35:08;26.80;;;17.48;;
36797;SDS011;22748;8.426;99.512;2023-02-18T13:40:25;24.23;;;17.60;;
36797;SDS011;22748;8.426;99.512;2023-02-18T13:46:07;33.88;;;22.77;;
36797;SDS011;22748;8.426;99.512;2023-02-18T13:48:42;36.30;;;23.90;;
36797;SDS011;22748;8.426;99.512;2023-02-18T13:51:17;36.60;;;25.45;;
36797;SDS011;22748;8.426;99.512;2023-02-18T13:54:00;44.67;;;30.10;;
36797;SDS011;22748;8.426;99.512;2023-02-18T13:56:38;39.70;;;25.55;;
36797;SDS011;22748;8.426;99.512;2023-02-18T13:59:14;29.38;;;18.10;;
36797;SDS011;22748;8.426;99.512;2023-02-18T14:01:52;23.75;;;14.77;;
36797;SDS011;22748;8.426;99.512;2023-02-18T14:07:25;20.63;;;13.10;;
36797;SDS011;22748;8.426;99.512;2023-02-18T14:10:13;20.63;;;12.13;;
36797;SDS011;22748;8.426;99.512;2023-02-18T14:15:53;17.23;;;11.65;;
36797;SDS011;22748;8.426;99.512;2023-02-18T14:18:32;16.25;;;10.85;;
36797;SDS011;22748;8.426;99.512;2023-02-18T14:21:20;13.97;;;10.73;;
36797;SDS011;22748;8.426;99.512;2023-02-18T14:24:04;14.63;;;9.90;;
36797;SDS011;22748;8.426;99.512;2023-02-18T14:26:45;14.98;;;9.93;;
36797;SDS011;22748;8.426;99.512;2023-02-18T14:29:23;18.73;;;10.20;;
36797;SDS011;22748;8.426;99.512;2023-02-18T14:31:59;12.10;;;9.40;;
36797;SDS011;22748;8.426;99.512;2023-02-18T14:40:39;13.32;;;8.50;;
36797;SDS011;22748;8.426;99.512;2023-02-18T14:43:35;14.30;;;9.40;;
36797;SDS011;22748;8.426;99.512;2023-02-18T14:46:24;14.38;;;9.30;;
36797;SDS011;22748;8.426;99.512;2023-02-18T14:52:11;12.57;;;9.07;;
36797;SDS011;22748;8.426;99.512;2023-02-18T14:57:18;10.73;;;8.07;;
36797;SDS011;22748;8.426;99.512;2023-02-18T14:59:59;12.23;;;9.40;;
36797;SDS011;22748;8.426;99.512;2023-02-18T15:02:29;13.40;;;8.70;;
36797;SDS011;22748;8.426;99.512;2023-02-18T15:05:12;14.57;;;9.82;;
36797;SDS011;22748;8.426;99.512;2023-02-18T15:07:54;11.32;;;9.25;;
36797;SDS011;22748;8.426;99.512;2023-02-18T15:13:04;15.65;;;10.23;;
36797;SDS011;22748;8.426;99.512;2023-02-18T15:15:36;16.38;;;11.13;;
36797;SDS011;22748;8.426;99.512;2023-02-18T15:18:11;18.13;;;10.80;;
36797;SDS011;22748;8.426;99.512;2023-02-18T15:20:50;14.35;;;10.70;;
36797;SDS011;22748;8.426;99.512;2023-02-18T15:23:19;16.77;;;10.48;;
36797;SDS011;22748;8.426;99.512;2023-02-18T15:25:53;14.45;;;10.20;;
36797;SDS011;22748;8.426;99.512;2023-02-18T15:28:24;15.98;;;10.80;;
36797;SDS011;22748;8.426;99.512;2023-02-18T15:30:56;12.77;;;9.95;;
36797;SDS011;22748;8.426;99.512;2023-02-18T15:33:27;17.02;;;10.82;;
36797;SDS011;22748;8.426;99.512;2023-02-18T15:36:00;15.70;;;10.43;;
36797;SDS011;22748;8.426;99.512;2023-02-18T15:41:01;21.40;;;12.88;;
36797;SDS011;22748;8.426;99.512;2023-02-18T15:43:31;16.60;;;11.10;;
36797;SDS011;22748;8.426;99.512;2023-02-18T15:46:04;14.40;;;10.77;;
36797;SDS011;22748;8.426;99.512;2023-02-18T15:48:43;14.40;;;11.32;;
36797;SDS011;22748;8.426;99.512;2023-02-18T15:51:17;15.05;;;10.23;;
36797;SDS011;22748;8.426;99.512;2023-02-18T15:53:51;18.55;;;10.68;;
36797;SDS011;22748;8.426;99.512;2023-02-18T15:56:29;14.43;;;10.38;;
36797;SDS011;22748;8.426;99.512;2023-02-18T15:59:09;15.25;;;10.18;;
36797;SDS011;22748;8.426;99.512;2023-02-18T16:01:46;15.55;;;10.05;;
36797;SDS011;22748;8.426;99.512;2023-02-18T16:04:19;13.70;;;10.18;;
36797;SDS011;22748;8.426;99.512;2023-02-18T16:06:51;14.32;;;10.20;;
36797;SDS011;22748;8.426;99.512;2023-02-18T16:09:24;16.70;;;10.63;;
36797;SDS011;22748;8.426;99.512;2023-02-18T16:12:02;15.98;;;10.18;;
36797;SDS011;22748;8.426;99.512;2023-02-18T16:14:42;14.82;;;10.02;;
36797;SDS011;22748;8.426;99.512;2023-02-18T16:17:19;17.25;;;10.50;;
36797;SDS011;22748;8.426;99.512;2023-02-18T16:19:51;18.05;;;10.20;;
36797;SDS011;22748;8.426;99.512;2023-02-18T16:22:26;19.70;;;11.30;;
36797;SDS011;22748;8.426;99.512;2023-02-18T16:25:07;21.58;;;14.55;;